sensor_id;sensor_type;location;lat;lon;timestamp;pressure;altitude;pressure_sealevel;temperature;humidity
42385;BME280;28042;43.986;22.860;2023-05-08T00:00:34;101261.91;;;11.69;100.00
42385;BME280;28042;43.986;22.860;2023-05-08T00:02:59;101268.63;;;11.67;100.00
42385;BME280;28042;43.986;22.860;2023-05-08T00:05:25;101268.72;;;11.58;100.00
42385;BME280;28042;43.986;22.860;2023-05-08T00:07:50;101270.41;;;11.59;100.00
42385;BME280;28042;43.986;22.860;2023-05-08T00:10:17;101225.81;;;11.23;100.00
42385;BME280;28042;43.986;22.860;2023-05-08T00:12:43;101251.97;;;11.32;100.00
42385;BME280;28042;43.986;22.860;2023-05-08T00:15:08;101263.34;;;11.36;100.00
42385;BME280;28042;43.986;22.860;2023-05-08T00:17:34;101255.47;;;11.26;100.00
42385;BME280;28042;43.986;22.860;2023-05-08T00:20:00;101258.00;;;11.27;100.00
42385;BME280;28042;43.986;22.860;2023-05-08T00:22:26;101276.47;;;11.40;100.00
42385;BME280;28042;43.986;22.860;2023-05-08T00:24:52;101257.44;;;11.32;100.00
42385;BME280;28042;43.986;22.860;2023-05-08T00:27:17;101259.69;;;11.28;100.00
42385;BME280;28042;43.986;22.860;2023-05-08T00:29:43;101258.19;;;11.26;100.00
42385;BME280;28042;43.986;22.860;2023-05-08T00:32:09;101260.47;;;11.22;100.00
42385;BME280;28042;43.986;22.860;2023-05-08T00:34:34;101215.81;;;11.00;100.00
42385;BME280;28042;43.986;22.860;2023-05-08T00:37:00;101250.38;;;11.23;100.00
42385;BME280;28042;43.986;22.860;2023-05-08T00:39:27;101217.31;;;11.03;100.00
42385;BME280;28042;43.986;22.860;2023-05-08T00:41:52;101220.72;;;11.05;100.00
42385;BME280;28042;43.986;22.860;2023-05-08T00:44:18;101269.59;;;11.29;100.00
42385;BME280;28042;43.986;22.860;2023-05-08T00:46:44;101222.31;;;10.99;100.00
42385;BME280;28042;43.986;22.860;2023-05-08T00:49:10;101225.34;;;11.04;100.00
42385;BME280;28042;43.986;22.860;2023-05-08T00:51:46;101261.22;;;11.31;100.00
42385;BME280;28042;43.986;22.860;2023-05-08T00:54:14;101212.25;;;11.00;100.00
42385;BME280;28042;43.986;22.860;2023-05-08T00:56:41;101197.75;;;10.99;100.00
42385;BME280;28042;43.986;22.860;2023-05-08T00:59:10;101212.25;;;11.15;100.00
42385;BME280;28042;43.986;22.860;2023-05-08T01:01:36;101202.25;;;11.07;100.00
42385;BME280;28042;43.986;22.860;2023-05-08T01:04:03;101259.59;;;11.37;100.00
42385;BME280;28042;43.986;22.860;2023-05-08T01:06:29;101258.94;;;11.20;100.00
42385;BME280;28042;43.986;22.860;2023-05-08T01:08:54;101227.59;;;10.86;100.00
42385;BME280;28042;43.986;22.860;2023-05-08T01:11:45;101206.19;;;10.75;100.00
42385;BME280;28042;43.986;22.860;2023-05-08T01:14:19;101275.88;;;11.00;100.00
42385;BME280;28042;43.986;22.860;2023-05-08T01:17:14;101217.56;;;10.64;100.00
42385;BME280;28042;43.986;22.860;2023-05-08T01:28:17;101293.06;;;10.71;100.00
42385;BME280;28042;43.986;22.860;2023-05-08T01:30:58;101289.16;;;10.66;100.00
42385;BME280;28042;43.986;22.860;2023-05-08T01:33:35;101284.81;;;10.57;100.00
42385;BME280;28042;43.986;22.860;2023-05-08T01:36:14;101287.91;;;10.54;100.00
42385;BME280;28042;43.986;22.860;2023-05-08T01:38:51;101282.09;;;10.57;100.00
42385;BME280;28042;43.986;22.860;2023-05-08T01:41:25;101245.69;;;10.27;100.00
42385;BME280;28042;43.986;22.860;2023-05-08T01:46:23;101280.47;;;10.47;100.00
42385;BME280;28042;43.986;22.860;2023-05-08T01:49:01;101240.78;;;10.22;100.00
42385;BME280;28042;43.986;22.860;2023-05-08T01:51:36;101303.19;;;10.63;100.00
42385;BME280;28042;43.986;22.860;2023-05-08T01:54:04;101304.56;;;10.59;100.00
42385;BME280;28042;43.986;22.860;2023-05-08T01:56:30;101283.66;;;10.51;100.00
42385;BME280;28042;43.986;22.860;2023-05-08T01:58:58;101302.41;;;10.54;100.00
42385;BME280;28042;43.986;22.860;2023-05-08T02:01:24;101292.34;;;10.55;100.00
42385;BME280;28042;43.986;22.860;2023-05-08T02:03:53;101289.88;;;10.60;100.00
42385;BME280;28042;43.986;22.860;2023-05-08T02:06:21;101283.06;;;10.64;100.00
42385;BME280;28042;43.986;22.860;2023-05-08T02:08:48;101290.13;;;10.73;100.00
42385;BME280;28042;43.986;22.860;2023-05-08T02:11:15;101275.53;;;10.66;100.00
42385;BME280;28042;43.986;22.860;2023-05-08T02:13:45;101219.88;;;10.37;100.00
42385;BME280;28042;43.986;22.860;2023-05-08T02:16:12;101259.53;;;10.63;100.00
42385;BME280;28042;43.986;22.860;2023-05-08T02:18:43;101263.50;;;10.75;100.00
42385;BME280;28042;43.986;22.860;2023-05-08T02:21:11;101274.59;;;10.73;100.00
42385;BME280;28042;43.986;22.860;2023-05-08T02:23:40;101287.72;;;10.78;100.00
42385;BME280;28042;43.986;22.860;2023-05-08T02:26:07;101235.84;;;10.40;100.00
42385;BME280;28042;43.986;22.860;2023-05-08T02:28:34;101252.53;;;10.45;100.00
42385;BME280;28042;43.986;22.860;2023-05-08T02:31:01;101276.63;;;10.57;100.00
42385;BME280;28042;43.986;22.860;2023-05-08T02:33:28;101231.16;;;10.34;100.00
42385;BME280;28042;43.986;22.860;2023-05-08T02:35:55;101276.03;;;10.69;100.00
42385;BME280;28042;43.986;22.860;2023-05-08T02:38:21;101230.13;;;10.35;100.00
42385;BME280;28042;43.986;22.860;2023-05-08T02:40:51;101288.13;;;10.67;100.00
42385;BME280;28042;43.986;22.860;2023-05-08T02:43:17;101296.31;;;10.67;100.00
42385;BME280;28042;43.986;22.860;2023-05-08T02:45:49;101285.13;;;10.62;100.00
42385;BME280;28042;43.986;22.860;2023-05-08T02:48:35;101225.41;;;10.21;100.00
42385;BME280;28042;43.986;22.860;2023-05-08T02:51:14;101235.56;;;10.35;100.00
42385;BME280;28042;43.986;22.860;2023-05-08T02:53:58;101285.41;;;10.67;100.00
42385;BME280;28042;43.986;22.860;2023-05-08T02:59:17;101263.69;;;10.73;100.00
42385;BME280;28042;43.986;22.860;2023-05-08T03:01:59;101254.44;;;10.60;100.00
42385;BME280;28042;43.986;22.860;2023-05-08T03:04:50;101267.41;;;10.58;100.00
42385;BME280;28042;43.986;22.860;2023-05-08T03:07:20;101261.00;;;10.51;100.00
42385;BME280;28042;43.986;22.860;2023-05-08T03:09:49;101192.69;;;10.21;100.00
42385;BME280;28042;43.986;22.860;2023-05-08T03:12:23;101260.91;;;10.59;100.00
42385;BME280;28042;43.986;22.860;2023-05-08T03:15:05;101202.16;;;10.33;100.00
42385;BME280;28042;43.986;22.860;2023-05-08T03:17:32;101255.31;;;10.75;100.00
42385;BME280;28042;43.986;22.860;2023-05-08T03:20:03;101251.97;;;10.88;100.00
42385;BME280;28042;43.986;22.860;2023-05-08T03:22:36;101248.28;;;11.10;100.00
42385;BME280;28042;43.986;22.860;2023-05-08T03:25:05;101190.88;;;10.89;100.00
42385;BME280;28042;43.986;22.860;2023-05-08T03:27:33;101203.66;;;11.03;100.00
42385;BME280;28042;43.986;22.860;2023-05-08T03:30:00;101261.78;;;11.41;100.00
42385;BME280;28042;43.986;22.860;2023-05-08T03:32:27;101214.03;;;11.22;100.00
42385;BME280;28042;43.986;22.860;2023-05-08T03:34:54;101276.28;;;11.56;100.00
42385;BME280;28042;43.986;22.860;2023-05-08T03:37:20;101284.19;;;11.51;100.00
42385;BME280;28042;43.986;22.860;2023-05-08T03:39:46;101298.41;;;11.47;100.00
42385;BME280;28042;43.986;22.860;2023-05-08T03:42:11;101294.25;;;11.36;100.00
42385;BME280;28042;43.986;22.860;2023-05-08T03:44:50;101276.91;;;11.44;100.00
42385;BME280;28042;43.986;22.860;2023-05-08T03:47:20;101288.34;;;11.47;100.00
42385;BME280;28042;43.986;22.860;2023-05-08T03:49:48;101304.44;;;11.57;100.00
42385;BME280;28042;43.986;22.860;2023-05-08T03:52:15;101293.56;;;11.64;100.00
42385;BME280;28042;43.986;22.860;2023-05-08T03:54:41;101252.91;;;11.39;100.00
42385;BME280;28042;43.986;22.860;2023-05-08T03:57:07;101319.59;;;11.89;100.00
42385;BME280;28042;43.986;22.860;2023-05-08T03:59:54;101316.84;;;11.89;100.00
42385;BME280;28042;43.986;22.860;2023-05-08T04:02:36;101311.28;;;11.97;100.00
42385;BME280;28042;43.986;22.860;2023-05-08T04:05:16;101323.78;;;12.06;100.00
42385;BME280;28042;43.986;22.860;2023-05-08T04:07:49;101319.06;;;12.15;100.00
42385;BME280;28042;43.986;22.860;2023-05-08T04:10:27;101331.44;;;12.32;100.00
42385;BME280;28042;43.986;22.860;2023-05-08T04:13:24;101328.41;;;12.63;100.00
42385;BME280;28042;43.986;22.860;2023-05-08T04:15:56;101307.03;;;12.73;100.00
42385;BME280;28042;43.986;22.860;2023-05-08T04:18:28;101310.72;;;12.87;100.00
42385;BME280;28042;43.986;22.860;2023-05-08T04:20:55;101271.47;;;12.52;100.00
42385;BME280;28042;43.986;22.860;2023-05-08T04:23:22;101300.38;;;12.83;100.00
42385;BME280;28042;43.986;22.860;2023-05-08T04:25:50;101305.25;;;13.15;100.00
42385;BME280;28042;43.986;22.860;2023-05-08T04:28:18;101315.31;;;13.36;100.00
42385;BME280;28042;43.986;22.860;2023-05-08T04:30:43;101249.16;;;13.39;100.00
42385;BME280;28042;43.986;22.860;2023-05-08T04:33:10;101296.59;;;13.88;100.00
42385;BME280;28042;43.986;22.860;2023-05-08T04:35:36;101301.25;;;14.68;100.00
42385;BME280;28042;43.986;22.860;2023-05-08T04:38:01;101256.69;;;14.46;100.00
42385;BME280;28042;43.986;22.860;2023-05-08T04:40:27;101251.81;;;14.68;100.00
42385;BME280;28042;43.986;22.860;2023-05-08T04:42:52;101293.88;;;15.02;100.00
42385;BME280;28042;43.986;22.860;2023-05-08T04:45:18;101255.22;;;14.63;100.00
42385;BME280;28042;43.986;22.860;2023-05-08T04:47:43;101320.31;;;14.96;100.00
42385;BME280;28042;43.986;22.860;2023-05-08T04:50:09;101300.00;;;15.10;100.00
42385;BME280;28042;43.986;22.860;2023-05-08T04:52:35;101283.50;;;15.17;100.00
42385;BME280;28042;43.986;22.860;2023-05-08T04:55:01;101268.25;;;15.27;100.00
42385;BME280;28042;43.986;22.860;2023-05-08T04:57:26;101318.78;;;15.46;100.00
42385;BME280;28042;43.986;22.860;2023-05-08T04:59:51;101332.28;;;15.61;100.00
42385;BME280;28042;43.986;22.860;2023-05-08T05:02:17;101325.06;;;15.53;100.00
42385;BME280;28042;43.986;22.860;2023-05-08T05:04:43;101314.94;;;15.67;100.00
42385;BME280;28042;43.986;22.860;2023-05-08T05:07:08;101326.47;;;15.89;100.00
42385;BME280;28042;43.986;22.860;2023-05-08T05:09:34;101319.28;;;15.88;99.44
42385;BME280;28042;43.986;22.860;2023-05-08T05:12:02;101320.91;;;16.09;99.24
42385;BME280;28042;43.986;22.860;2023-05-08T05:14:28;101273.91;;;16.10;96.37
42385;BME280;28042;43.986;22.860;2023-05-08T05:16:54;101289.28;;;16.88;92.30
42385;BME280;28042;43.986;22.860;2023-05-08T05:19:19;101334.66;;;17.10;89.41
42385;BME280;28042;43.986;22.860;2023-05-08T05:21:45;101333.69;;;16.98;89.83
42385;BME280;28042;43.986;22.860;2023-05-08T05:24:10;101338.69;;;16.83;89.68
42385;BME280;28042;43.986;22.860;2023-05-08T05:26:35;101305.47;;;16.39;91.25
42385;BME280;28042;43.986;22.860;2023-05-08T05:29:01;101284.59;;;15.80;95.09
42385;BME280;28042;43.986;22.860;2023-05-08T05:31:27;101348.69;;;15.94;91.76
42385;BME280;28042;43.986;22.860;2023-05-08T05:33:53;101292.72;;;15.62;90.93
42385;BME280;28042;43.986;22.860;2023-05-08T05:36:19;101296.91;;;15.71;89.60
42385;BME280;28042;43.986;22.860;2023-05-08T05:38:44;101298.22;;;15.69;90.65
42385;BME280;28042;43.986;22.860;2023-05-08T05:41:10;101351.44;;;15.94;91.83
42385;BME280;28042;43.986;22.860;2023-05-08T05:43:35;101301.16;;;15.74;92.80
42385;BME280;28042;43.986;22.860;2023-05-08T05:46:04;101322.88;;;15.95;91.98
42385;BME280;28042;43.986;22.860;2023-05-08T05:48:30;101301.22;;;16.05;89.69
42385;BME280;28042;43.986;22.860;2023-05-08T05:50:56;101349.19;;;16.23;89.96
42385;BME280;28042;43.986;22.860;2023-05-08T05:53:22;101302.78;;;15.88;89.58
42385;BME280;28042;43.986;22.860;2023-05-08T05:55:47;101321.78;;;15.96;89.99
42385;BME280;28042;43.986;22.860;2023-05-08T05:58:13;101269.34;;;15.91;89.30
42385;BME280;28042;43.986;22.860;2023-05-08T06:00:40;101346.66;;;16.28;89.55
42385;BME280;28042;43.986;22.860;2023-05-08T06:03:05;101312.94;;;15.94;89.55
42385;BME280;28042;43.986;22.860;2023-05-08T06:05:31;101352.50;;;16.45;88.95
42385;BME280;28042;43.986;22.860;2023-05-08T06:07:56;101311.47;;;16.30;88.22
42385;BME280;28042;43.986;22.860;2023-05-08T06:10:22;101309.00;;;16.85;85.41
42385;BME280;28042;43.986;22.860;2023-05-08T06:12:47;101371.72;;;17.64;83.41
42385;BME280;28042;43.986;22.860;2023-05-08T06:15:13;101373.72;;;17.75;81.31
42385;BME280;28042;43.986;22.860;2023-05-08T06:17:39;101317.59;;;18.18;79.53
42385;BME280;28042;43.986;22.860;2023-05-08T06:20:05;101326.47;;;18.20;77.19
42385;BME280;28042;43.986;22.860;2023-05-08T06:22:31;101358.44;;;18.28;78.14
42385;BME280;28042;43.986;22.860;2023-05-08T06:24:57;101369.41;;;18.34;78.54
42385;BME280;28042;43.986;22.860;2023-05-08T06:27:22;101367.81;;;18.27;78.83
42385;BME280;28042;43.986;22.860;2023-05-08T06:29:49;101360.84;;;18.24;78.86
42385;BME280;28042;43.986;22.860;2023-05-08T06:32:20;101369.22;;;18.48;78.29
42385;BME280;28042;43.986;22.860;2023-05-08T06:34:46;101361.91;;;18.23;77.72
42385;BME280;28042;43.986;22.860;2023-05-08T06:37:12;101284.94;;;17.78;78.31
42385;BME280;28042;43.986;22.860;2023-05-08T06:39:37;101362.69;;;18.12;79.34
42385;BME280;28042;43.986;22.860;2023-05-08T06:42:03;101390.28;;;18.12;80.19
42385;BME280;28042;43.986;22.860;2023-05-08T06:44:32;101347.13;;;18.18;78.87
42385;BME280;28042;43.986;22.860;2023-05-08T06:46:57;101391.03;;;18.38;78.72
42385;BME280;28042;43.986;22.860;2023-05-08T06:49:23;101396.06;;;18.11;79.73
42385;BME280;28042;43.986;22.860;2023-05-08T06:51:48;101394.13;;;18.11;80.71
42385;BME280;28042;43.986;22.860;2023-05-08T06:54:14;101380.47;;;17.79;82.98
42385;BME280;28042;43.986;22.860;2023-05-08T06:56:39;101350.72;;;18.18;81.73
42385;BME280;28042;43.986;22.860;2023-05-08T06:59:05;101345.91;;;18.44;80.05
42385;BME280;28042;43.986;22.860;2023-05-08T07:01:30;101345.31;;;18.23;79.32
42385;BME280;28042;43.986;22.860;2023-05-08T07:03:56;101353.28;;;18.31;79.08
42385;BME280;28042;43.986;22.860;2023-05-08T07:06:22;101402.53;;;18.71;79.68
42385;BME280;28042;43.986;22.860;2023-05-08T07:08:47;101352.88;;;18.76;78.05
42385;BME280;28042;43.986;22.860;2023-05-08T07:11:13;101401.31;;;19.09;77.69
42385;BME280;28042;43.986;22.860;2023-05-08T07:13:38;101371.97;;;19.19;75.49
42385;BME280;28042;43.986;22.860;2023-05-08T07:16:09;101417.16;;;19.67;75.73
42385;BME280;28042;43.986;22.860;2023-05-08T07:18:35;101405.38;;;19.83;74.26
42385;BME280;28042;43.986;22.860;2023-05-08T07:21:00;101343.50;;;19.66;73.68
42385;BME280;28042;43.986;22.860;2023-05-08T07:23:26;101415.09;;;19.97;73.58
42385;BME280;28042;43.986;22.860;2023-05-08T07:25:52;101416.91;;;20.03;73.40
42385;BME280;28042;43.986;22.860;2023-05-08T07:28:18;101426.50;;;20.13;72.78
42385;BME280;28042;43.986;22.860;2023-05-08T07:30:44;101380.91;;;19.80;73.11
42385;BME280;28042;43.986;22.860;2023-05-08T07:33:09;101423.31;;;19.92;73.96
42385;BME280;28042;43.986;22.860;2023-05-08T07:35:40;101428.25;;;19.67;74.00
42385;BME280;28042;43.986;22.860;2023-05-08T07:38:06;101381.97;;;19.32;75.34
42385;BME280;28042;43.986;22.860;2023-05-08T07:40:32;101431.38;;;19.82;72.47
42385;BME280;28042;43.986;22.860;2023-05-08T07:42:57;101387.66;;;19.49;73.23
42385;BME280;28042;43.986;22.860;2023-05-08T07:45:23;101388.47;;;19.96;71.03
42385;BME280;28042;43.986;22.860;2023-05-08T07:47:53;101376.97;;;20.28;70.04
42385;BME280;28042;43.986;22.860;2023-05-08T07:50:19;101370.53;;;20.39;69.51
42385;BME280;28042;43.986;22.860;2023-05-08T07:52:46;101374.47;;;20.26;69.31
42385;BME280;28042;43.986;22.860;2023-05-08T07:55:11;101412.38;;;20.78;68.61
42385;BME280;28042;43.986;22.860;2023-05-08T07:57:42;101419.09;;;20.82;67.04
42385;BME280;28042;43.986;22.860;2023-05-08T08:00:12;101414.06;;;20.79;67.24
42385;BME280;28042;43.986;22.860;2023-05-08T08:02:38;101414.28;;;20.49;68.43
42385;BME280;28042;43.986;22.860;2023-05-08T08:05:04;101426.22;;;20.49;69.56
42385;BME280;28042;43.986;22.860;2023-05-08T08:07:31;101437.03;;;19.75;72.31
42385;BME280;28042;43.986;22.860;2023-05-08T08:10:00;101371.63;;;19.16;73.43
42385;BME280;28042;43.986;22.860;2023-05-08T08:12:26;101373.47;;;19.57;73.33
42385;BME280;28042;43.986;22.860;2023-05-08T08:14:53;101397.34;;;20.22;72.63
42385;BME280;28042;43.986;22.860;2023-05-08T08:17:18;101362.13;;;20.46;69.15
42385;BME280;28042;43.986;22.860;2023-05-08T08:19:44;101359.59;;;20.73;66.57
42385;BME280;28042;43.986;22.860;2023-05-08T08:22:09;101419.91;;;20.94;69.03
42385;BME280;28042;43.986;22.860;2023-05-08T08:24:35;101416.75;;;21.36;65.58
42385;BME280;28042;43.986;22.860;2023-05-08T08:27:01;101422.72;;;21.61;64.63
42385;BME280;28042;43.986;22.860;2023-05-08T08:29:26;101378.00;;;21.41;63.85
42385;BME280;28042;43.986;22.860;2023-05-08T08:31:52;101371.25;;;21.03;63.89
42385;BME280;28042;43.986;22.860;2023-05-08T08:34:17;101430.06;;;21.34;65.07
42385;BME280;28042;43.986;22.860;2023-05-08T08:36:43;101371.56;;;21.24;64.61
42385;BME280;28042;43.986;22.860;2023-05-08T08:39:09;101421.31;;;22.14;61.90
42385;BME280;28042;43.986;22.860;2023-05-08T08:41:34;101410.25;;;22.41;59.71
42385;BME280;28042;43.986;22.860;2023-05-08T08:44:00;101418.38;;;21.65;61.00
42385;BME280;28042;43.986;22.860;2023-05-08T08:46:26;101422.41;;;22.13;60.26
42385;BME280;28042;43.986;22.860;2023-05-08T08:48:54;101423.59;;;22.39;59.05
42385;BME280;28042;43.986;22.860;2023-05-08T08:51:36;101379.81;;;22.78;58.87
42385;BME280;28042;43.986;22.860;2023-05-08T08:54:11;101421.38;;;23.12;57.36
42385;BME280;28042;43.986;22.860;2023-05-08T08:56:40;101428.63;;;23.13;57.87
42385;BME280;28042;43.986;22.860;2023-05-08T08:59:10;101366.31;;;22.65;56.45
42385;BME280;28042;43.986;22.860;2023-05-08T09:01:38;101384.19;;;22.04;57.83
42385;BME280;28042;43.986;22.860;2023-05-08T09:04:05;101387.13;;;21.97;56.96
42385;BME280;28042;43.986;22.860;2023-05-08T09:06:34;101395.44;;;21.75;57.03
42385;BME280;28042;43.986;22.860;2023-05-08T09:09:01;101439.47;;;22.22;56.98
42385;BME280;28042;43.986;22.860;2023-05-08T09:11:27;101380.81;;;21.63;56.55
42385;BME280;28042;43.986;22.860;2023-05-08T09:13:54;101404.63;;;21.76;56.23
42385;BME280;28042;43.986;22.860;2023-05-08T09:16:20;101436.09;;;21.81;57.71
42385;BME280;28042;43.986;22.860;2023-05-08T09:18:46;101401.56;;;21.38;57.56
42385;BME280;28042;43.986;22.860;2023-05-08T09:21:12;101425.78;;;20.98;60.29
42385;BME280;28042;43.986;22.860;2023-05-08T09:24:02;101442.84;;;21.06;60.79
42385;BME280;28042;43.986;22.860;2023-05-08T09:26:39;101452.75;;;20.45;63.44
42385;BME280;28042;43.986;22.860;2023-05-08T09:29:17;101444.06;;;20.53;64.86
42385;BME280;28042;43.986;22.860;2023-05-08T09:31:45;101453.75;;;20.16;64.77
42385;BME280;28042;43.986;22.860;2023-05-08T09:34:25;101397.78;;;19.55;65.83
42385;BME280;28042;43.986;22.860;2023-05-08T09:36:53;101436.91;;;19.82;63.95
42385;BME280;28042;43.986;22.860;2023-05-08T09:39:23;101457.47;;;20.21;67.12
42385;BME280;28042;43.986;22.860;2023-05-08T09:42:02;101408.72;;;20.09;68.41
42385;BME280;28042;43.986;22.860;2023-05-08T09:44:51;101405.22;;;19.43;64.86
42385;BME280;28042;43.986;22.860;2023-05-08T09:47:22;101454.06;;;18.96;68.45
42385;BME280;28042;43.986;22.860;2023-05-08T09:50:02;101395.09;;;18.83;68.20
42385;BME280;28042;43.986;22.860;2023-05-08T09:52:28;101454.41;;;19.29;68.58
42385;BME280;28042;43.986;22.860;2023-05-08T09:55:01;101461.88;;;19.40;68.03
42385;BME280;28042;43.986;22.860;2023-05-08T09:57:28;101399.88;;;18.76;71.64
42385;BME280;28042;43.986;22.860;2023-05-08T10:02:26;101450.38;;;18.83;74.00
42385;BME280;28042;43.986;22.860;2023-05-08T10:04:51;101405.34;;;18.16;81.08
42385;BME280;28042;43.986;22.860;2023-05-08T10:07:29;101389.41;;;17.32;90.46
42385;BME280;28042;43.986;22.860;2023-05-08T10:10:03;101457.34;;;17.51;99.32
42385;BME280;28042;43.986;22.860;2023-05-08T10:12:31;101410.88;;;16.98;100.00
42385;BME280;28042;43.986;22.860;2023-05-08T10:14:57;101465.44;;;17.46;100.00
42385;BME280;28042;43.986;22.860;2023-05-08T10:17:45;101470.00;;;17.34;100.00
42385;BME280;28042;43.986;22.860;2023-05-08T10:20:13;101469.38;;;17.32;100.00
42385;BME280;28042;43.986;22.860;2023-05-08T10:22:42;101465.00;;;17.49;100.00
42385;BME280;28042;43.986;22.860;2023-05-08T10:25:13;101464.28;;;17.60;100.00
42385;BME280;28042;43.986;22.860;2023-05-08T10:30:26;101430.78;;;17.32;100.00
42385;BME280;28042;43.986;22.860;2023-05-08T10:32:55;101430.97;;;17.05;100.00
42385;BME280;28042;43.986;22.860;2023-05-08T10:35:23;101457.25;;;17.08;100.00
42385;BME280;28042;43.986;22.860;2023-05-08T10:37:50;101497.16;;;17.05;100.00
42385;BME280;28042;43.986;22.860;2023-05-08T10:40:17;101465.53;;;16.70;100.00
42385;BME280;28042;43.986;22.860;2023-05-08T10:42:45;101446.25;;;16.11;100.00
42385;BME280;28042;43.986;22.860;2023-05-08T10:45:11;101486.69;;;16.11;100.00
42385;BME280;28042;43.986;22.860;2023-05-08T10:47:54;101502.97;;;16.13;100.00
42385;BME280;28042;43.986;22.860;2023-05-08T10:52:56;101464.06;;;15.89;100.00
42385;BME280;28042;43.986;22.860;2023-05-08T10:55:25;101515.88;;;16.25;100.00
42385;BME280;28042;43.986;22.860;2023-05-08T10:58:14;101519.47;;;16.26;100.00
42385;BME280;28042;43.986;22.860;2023-05-08T11:03:22;101506.50;;;16.33;100.00
42385;BME280;28042;43.986;22.860;2023-05-08T11:05:51;101513.06;;;16.45;100.00
42385;BME280;28042;43.986;22.860;2023-05-08T11:08:18;101519.34;;;16.59;100.00
42385;BME280;28042;43.986;22.860;2023-05-08T11:13:18;101504.06;;;16.76;100.00
42385;BME280;28042;43.986;22.860;2023-05-08T11:15:51;101458.34;;;16.62;100.00
42385;BME280;28042;43.986;22.860;2023-05-08T11:18:17;101499.69;;;17.00;100.00
42385;BME280;28042;43.986;22.860;2023-05-08T11:20:59;101497.50;;;17.15;100.00
42385;BME280;28042;43.986;22.860;2023-05-08T11:23:37;101498.78;;;17.13;100.00
42385;BME280;28042;43.986;22.860;2023-05-08T11:26:12;101489.13;;;16.97;100.00
42385;BME280;28042;43.986;22.860;2023-05-08T11:28:39;101482.31;;;17.00;100.00
42385;BME280;28042;43.986;22.860;2023-05-08T11:31:08;101446.41;;;16.75;100.00
42385;BME280;28042;43.986;22.860;2023-05-08T11:33:34;101449.72;;;16.45;100.00
42385;BME280;28042;43.986;22.860;2023-05-08T11:36:20;101453.81;;;16.23;100.00
42385;BME280;28042;43.986;22.860;2023-05-08T11:39:07;101465.03;;;16.28;100.00
42385;BME280;28042;43.986;22.860;2023-05-08T11:41:33;101480.28;;;16.24;100.00
42385;BME280;28042;43.986;22.860;2023-05-08T11:46:50;101524.53;;;16.29;100.00
42385;BME280;28042;43.986;22.860;2023-05-08T11:49:19;101483.53;;;15.88;100.00
42385;BME280;28042;43.986;22.860;2023-05-08T11:51:47;101531.13;;;16.15;100.00
42385;BME280;28042;43.986;22.860;2023-05-08T11:54:17;101528.41;;;16.01;100.00
42385;BME280;28042;43.986;22.860;2023-05-08T11:56:48;101524.38;;;15.97;100.00
42385;BME280;28042;43.986;22.860;2023-05-08T11:59:14;101512.34;;;15.85;100.00
42385;BME280;28042;43.986;22.860;2023-05-08T12:01:40;101487.31;;;15.53;100.00
42385;BME280;28042;43.986;22.860;2023-05-08T12:04:08;101535.59;;;15.96;100.00
42385;BME280;28042;43.986;22.860;2023-05-08T12:06:35;101485.88;;;15.71;100.00
42385;BME280;28042;43.986;22.860;2023-05-08T12:09:11;101538.13;;;16.04;100.00
42385;BME280;28042;43.986;22.860;2023-05-08T12:11:36;101491.59;;;15.82;100.00
42385;BME280;28042;43.986;22.860;2023-05-08T12:14:03;101540.88;;;16.04;100.00
42385;BME280;28042;43.986;22.860;2023-05-08T12:16:29;101538.97;;;16.04;100.00
42385;BME280;28042;43.986;22.860;2023-05-08T12:18:55;101533.47;;;15.98;100.00
42385;BME280;28042;43.986;22.860;2023-05-08T12:21:21;101496.66;;;15.92;100.00
42385;BME280;28042;43.986;22.860;2023-05-08T12:23:47;101533.03;;;16.34;100.00
42385;BME280;28042;43.986;22.860;2023-05-08T12:26:13;101476.97;;;16.02;100.00
42385;BME280;28042;43.986;22.860;2023-05-08T12:28:39;101483.88;;;16.24;100.00
42385;BME280;28042;43.986;22.860;2023-05-08T12:31:08;101508.16;;;16.54;100.00
42385;BME280;28042;43.986;22.860;2023-05-08T12:33:34;101532.28;;;16.72;100.00
42385;BME280;28042;43.986;22.860;2023-05-08T12:36:00;101476.22;;;16.33;100.00
42385;BME280;28042;43.986;22.860;2023-05-08T12:38:27;101527.81;;;16.64;100.00
42385;BME280;28042;43.986;22.860;2023-05-08T12:40:53;101491.88;;;16.46;100.00
42385;BME280;28042;43.986;22.860;2023-05-08T12:43:30;101475.81;;;16.36;100.00
42385;BME280;28042;43.986;22.860;2023-05-08T12:45:57;101510.47;;;16.57;100.00
42385;BME280;28042;43.986;22.860;2023-05-08T12:48:22;101472.25;;;16.16;100.00
42385;BME280;28042;43.986;22.860;2023-05-08T12:50:47;101509.22;;;16.53;100.00
42385;BME280;28042;43.986;22.860;2023-05-08T12:53:15;101468.63;;;16.35;100.00
42385;BME280;28042;43.986;22.860;2023-05-08T12:55:52;101517.41;;;16.79;100.00
42385;BME280;28042;43.986;22.860;2023-05-08T12:58:19;101522.69;;;16.87;100.00
42385;BME280;28042;43.986;22.860;2023-05-08T13:00:48;101508.69;;;16.89;100.00
42385;BME280;28042;43.986;22.860;2023-05-08T13:03:25;101514.22;;;16.82;100.00
42385;BME280;28042;43.986;22.860;2023-05-08T13:05:51;101474.88;;;16.55;100.00
42385;BME280;28042;43.986;22.860;2023-05-08T13:08:17;101504.94;;;16.77;100.00
42385;BME280;28042;43.986;22.860;2023-05-08T13:10:50;101510.31;;;17.03;100.00